createdAt,value
2017-05-25T00:00:37.993Z,0
2017-05-25T00:01:46.953Z,0
2017-05-25T00:02:56.160Z,0
2017-05-25T00:04:05.122Z,0
2017-05-25T00:05:14.133Z,0
2017-05-25T00:06:23.424Z,0
2017-05-25T00:07:32.389Z,0
2017-05-25T00:08:41.600Z,0
2017-05-25T00:09:50.557Z,0
2017-05-25T00:10:59.514Z,0
2017-05-25T00:12:08.473Z,0
2017-05-25T00:13:17.430Z,0
2017-05-25T00:14:26.642Z,0
2017-05-25T00:15:35.609Z,0
2017-05-25T00:16:44.563Z,0
2017-05-25T00:17:53.517Z,0
2017-05-25T00:19:02.479Z,0
2017-05-25T00:20:11.682Z,0
2017-05-25T00:21:20.645Z,0
2017-05-25T00:22:29.603Z,0
2017-05-25T00:23:38.882Z,0
2017-05-25T00:24:47.840Z,0
2017-05-25T00:25:57.051Z,0
2017-05-25T00:27:06.007Z,0
2017-05-25T00:28:14.965Z,0
2017-05-25T00:29:23.917Z,0
2017-05-25T00:30:32.878Z,0
2017-05-25T00:31:42.088Z,0
2017-05-25T00:32:51.046Z,0
2017-05-25T00:34:00.340Z,0
2017-05-25T00:35:09.295Z,0
2017-05-25T00:36:18.260Z,0
2017-05-25T00:37:27.467Z,0
2017-05-25T00:38:36.426Z,0
2017-05-25T00:39:45.385Z,0
2017-05-25T00:40:54.668Z,0
2017-05-25T00:42:03.643Z,0
2017-05-25T00:43:12.852Z,0
2017-05-25T00:44:21.816Z,0
2017-05-25T00:45:30.776Z,0
2017-05-25T00:46:39.729Z,0
2017-05-25T00:47:48.692Z,0
2017-05-25T00:48:57.902Z,0
2017-05-25T00:50:06.861Z,0
2017-05-25T00:51:15.819Z,0
2017-05-25T00:52:24.775Z,0
2017-05-25T00:53:33.735Z,0
2017-05-25T00:54:43.121Z,0
2017-05-25T00:55:52.081Z,0
2017-05-25T00:57:01.042Z,0
2017-05-25T00:58:09.999Z,0
2017-05-25T00:59:19.277Z,0
2017-05-25T01:00:28.487Z,0
2017-05-25T01:01:37.448Z,0
2017-05-25T01:02:46.417Z,0
2017-05-25T01:03:55.704Z,0
2017-05-25T01:05:04.657Z,0
2017-05-25T01:06:13.870Z,0
2017-05-25T01:07:22.825Z,0
2017-05-25T01:08:31.793Z,0
2017-05-25T01:09:40.750Z,0
2017-05-25T01:10:49.709Z,0
2017-05-25T01:11:58.961Z,0
2017-05-25T01:13:08.257Z,0
2017-05-25T01:14:17.218Z,0
2017-05-25T01:15:26.173Z,0
2017-05-25T01:16:35.131Z,0
2017-05-25T01:17:44.349Z,0
2017-05-25T01:18:53.326Z,0
2017-05-25T01:20:02.609Z,0
2017-05-25T01:21:11.571Z,0
2017-05-25T01:22:20.532Z,0
2017-05-25T01:23:29.742Z,0
2017-05-25T01:24:38.698Z,0
2017-05-25T01:25:47.658Z,0
2017-05-25T01:26:56.613Z,0
2017-05-25T01:28:05.575Z,0
2017-05-25T01:29:14.782Z,0
2017-05-25T01:30:23.742Z,0
2017-05-25T01:31:32.696Z,0
2017-05-25T01:32:41.654Z,0
2017-05-25T01:33:50.622Z,0
2017-05-25T01:34:59.881Z,0
2017-05-25T01:36:08.837Z,0
2017-05-25T01:37:17.793Z,0
2017-05-25T01:38:26.751Z,0
2017-05-25T01:39:35.709Z,0
2017-05-25T01:40:44.916Z,0
2017-05-25T01:41:53.874Z,0
2017-05-25T01:43:02.830Z,0
2017-05-25T01:44:11.796Z,0
2017-05-25T01:45:21.084Z,0
2017-05-25T01:46:30.296Z,0
2017-05-25T01:47:39.257Z,0
2017-05-25T01:48:48.216Z,0
2017-05-25T01:49:57.178Z,0
2017-05-25T01:51:06.140Z,0
2017-05-25T01:52:15.352Z,0
2017-05-25T01:53:24.310Z,0
2017-05-25T01:54:33.267Z,0
2017-05-25T01:55:42.225Z,0
2017-05-25T01:56:51.175Z,0
2017-05-25T01:58:00.380Z,0
2017-05-25T01:59:09.334Z,0
2017-05-25T02:00:18.289Z,0
2017-05-25T02:01:27.248Z,0
2017-05-25T02:02:36.303Z,0
2017-05-25T02:03:45.514Z,0
2017-05-25T02:04:54.478Z,0
2017-05-25T02:06:03.521Z,0
2017-05-25T02:07:12.481Z,0
2017-05-25T02:08:21.442Z,0
2017-05-25T02:09:30.650Z,0
2017-05-25T02:10:39.607Z,0
2017-05-25T02:11:48.568Z,0
2017-05-25T02:12:57.532Z,0
2017-05-25T02:14:06.487Z,0
2017-05-25T02:15:15.690Z,0
2017-05-25T02:16:24.968Z,0
2017-05-25T02:17:33.929Z,0
2017-05-25T02:18:42.888Z,0
2017-05-25T02:19:52.175Z,0
2017-05-25T02:21:01.386Z,0
2017-05-25T02:22:10.342Z,0
2017-05-25T02:23:19.311Z,0
2017-05-25T02:24:28.272Z,0
2017-05-25T02:25:37.232Z,0
2017-05-25T02:26:46.437Z,4
2017-05-25T02:27:55.392Z,0
2017-05-25T02:29:04.362Z,0
2017-05-25T02:30:13.313Z,0
2017-05-25T02:31:22.279Z,4
2017-05-25T02:32:31.576Z,4
2017-05-25T02:33:40.536Z,0
2017-05-25T02:34:49.509Z,4
2017-05-25T02:35:58.471Z,0
2017-05-25T02:37:07.425Z,4
2017-05-25T02:38:16.641Z,4
2017-05-25T02:39:25.599Z,4
2017-05-25T02:40:34.557Z,4
2017-05-25T02:41:43.517Z,4
2017-05-25T02:42:52.476Z,8
2017-05-25T02:44:01.688Z,8
2017-05-25T02:45:10.646Z,8
2017-05-25T02:46:19.930Z,8
2017-05-25T02:47:28.883Z,12
2017-05-25T02:48:37.924Z,12
2017-05-25T02:49:47.142Z,16
2017-05-25T02:50:56.097Z,12
2017-05-25T02:52:05.052Z,12
2017-05-25T02:53:14.099Z,20
2017-05-25T02:54:23.057Z,20
2017-05-25T02:55:32.267Z,20
2017-05-25T02:56:41.220Z,24
2017-05-25T02:57:50.178Z,24
2017-05-25T02:58:59.144Z,28
2017-05-25T03:00:08.105Z,28
2017-05-25T03:01:17.311Z,28
2017-05-25T03:02:26.270Z,32
2017-05-25T03:03:35.230Z,36
2017-05-25T03:04:44.192Z,40
2017-05-25T03:05:53.148Z,40
2017-05-25T03:07:02.356Z,44
2017-05-25T03:08:11.316Z,48
2017-05-25T03:09:20.277Z,52
2017-05-25T03:10:29.245Z,56
2017-05-25T03:11:38.198Z,64
2017-05-25T03:12:47.405Z,68
2017-05-25T03:13:56.367Z,76
2017-05-25T03:15:05.322Z,84
2017-05-25T03:16:14.285Z,96
2017-05-25T03:17:23.243Z,100
2017-05-25T03:18:32.514Z,100
2017-05-25T03:19:41.470Z,100
2017-05-25T03:20:50.430Z,100
2017-05-25T03:21:59.387Z,104
2017-05-25T03:23:08.346Z,104
2017-05-25T03:24:17.556Z,104
2017-05-25T03:25:26.519Z,112
2017-05-25T03:26:35.479Z,116
2017-05-25T03:27:44.439Z,108
2017-05-25T03:28:53.723Z,108
2017-05-25T03:30:02.984Z,108
2017-05-25T03:31:11.943Z,116
2017-05-25T03:32:20.897Z,120
2017-05-25T03:33:29.855Z,124
2017-05-25T03:34:38.816Z,128
2017-05-25T03:35:48.022Z,132
2017-05-25T03:36:56.974Z,132
2017-05-25T03:38:05.929Z,140
2017-05-25T03:39:14.975Z,140
2017-05-25T03:40:23.933Z,144
2017-05-25T03:41:33.140Z,148
2017-05-25T03:42:42.111Z,160
2017-05-25T03:43:51.070Z,168
2017-05-25T03:45:00.036Z,172
2017-05-25T03:46:08.991Z,180
2017-05-25T03:47:18.210Z,180
2017-05-25T03:48:27.183Z,184
2017-05-25T03:49:36.147Z,184
2017-05-25T03:50:45.107Z,180
2017-05-25T03:51:54.068Z,180
2017-05-25T03:53:03.277Z,184
2017-05-25T03:54:12.242Z,192
2017-05-25T03:55:21.203Z,200
2017-05-25T03:56:30.158Z,212
2017-05-25T03:57:39.116Z,232
2017-05-25T03:58:48.647Z,268
2017-05-25T03:59:57.607Z,300
2017-05-25T04:01:06.569Z,324
2017-05-25T04:02:15.525Z,324
2017-05-25T04:03:24.488Z,328
2017-05-25T04:04:33.701Z,316
2017-05-25T04:05:42.663Z,308
2017-05-25T04:06:51.629Z,304
2017-05-25T04:08:00.594Z,284
2017-05-25T04:09:09.556Z,276
2017-05-25T04:10:18.767Z,272
2017-05-25T04:11:27.727Z,276
2017-05-25T04:12:36.682Z,284
2017-05-25T04:13:45.662Z,284
2017-05-25T04:14:54.618Z,284
2017-05-25T04:16:03.825Z,292
2017-05-25T04:17:12.785Z,288
2017-05-25T04:18:21.745Z,296
2017-05-25T04:19:30.705Z,296
2017-05-25T04:20:39.660Z,304
2017-05-25T04:21:48.868Z,308
2017-05-25T04:22:57.830Z,316
2017-05-25T04:24:06.786Z,320
2017-05-25T04:25:15.741Z,324
2017-05-25T04:26:24.785Z,328
2017-05-25T04:27:33.996Z,332
2017-05-25T04:28:42.957Z,336
2017-05-25T04:29:51.923Z,340
2017-05-25T04:31:00.970Z,348
2017-05-25T04:32:10.010Z,360
2017-05-25T04:33:19.266Z,356
2017-05-25T04:34:28.229Z,360
2017-05-25T04:35:37.189Z,364
2017-05-25T04:36:46.145Z,376
2017-05-25T04:37:55.106Z,384
2017-05-25T04:39:04.318Z,396
2017-05-25T04:40:13.278Z,404
2017-05-25T04:41:22.235Z,412
2017-05-25T04:42:31.190Z,404
2017-05-25T04:43:40.154Z,404
2017-05-25T04:44:49.415Z,396
2017-05-25T04:45:58.375Z,396
2017-05-25T04:47:07.330Z,420
2017-05-25T04:48:16.294Z,424
2017-05-25T04:49:25.258Z,428
2017-05-25T04:50:34.464Z,436
2017-05-25T04:51:43.428Z,436
2017-05-25T04:52:52.385Z,432
2017-05-25T04:54:01.342Z,440
2017-05-25T04:55:10.297Z,448
2017-05-25T04:56:19.561Z,440
2017-05-25T04:57:28.522Z,452
2017-05-25T04:58:37.477Z,456
2017-05-25T04:59:46.434Z,448
2017-05-25T05:00:55.392Z,464
2017-05-25T05:02:04.599Z,460
2017-05-25T05:03:13.555Z,464
2017-05-25T05:04:22.512Z,464
2017-05-25T05:05:31.469Z,476
2017-05-25T05:06:40.434Z,484
2017-05-25T05:07:49.638Z,480
2017-05-25T05:08:58.600Z,488
2017-05-25T05:10:07.606Z,492
2017-05-25T05:11:16.555Z,504
2017-05-25T05:12:25.509Z,512
2017-05-25T05:13:34.715Z,520
2017-05-25T05:14:43.673Z,524
2017-05-25T05:15:52.639Z,528
2017-05-25T05:17:01.597Z,524
2017-05-25T05:18:10.560Z,528
2017-05-25T05:19:19.768Z,528
2017-05-25T05:20:28.727Z,524
2017-05-25T05:21:37.772Z,532
2017-05-25T05:22:46.723Z,540
2017-05-25T05:23:55.688Z,552
2017-05-25T05:25:04.903Z,556
2017-05-25T05:26:13.861Z,568
2017-05-25T05:27:22.823Z,592
2017-05-25T05:28:31.777Z,636
2017-05-25T05:29:40.734Z,656
2017-05-25T05:30:49.947Z,656
2017-05-25T05:31:58.976Z,644
2017-05-25T05:33:08.257Z,696
2017-05-25T05:34:17.308Z,704
2017-05-25T05:35:26.267Z,644
2017-05-25T05:36:35.473Z,640
2017-05-25T05:37:44.433Z,644
2017-05-25T05:38:53.404Z,656
2017-05-25T05:40:02.370Z,656
2017-05-25T05:41:11.324Z,672
2017-05-25T05:42:20.530Z,708
2017-05-25T05:43:29.503Z,720
2017-05-25T05:44:38.465Z,716
2017-05-25T05:45:47.420Z,776
2017-05-25T05:46:56.379Z,812
2017-05-25T05:48:05.585Z,880
2017-05-25T05:49:14.542Z,908
2017-05-25T05:50:23.499Z,932
2017-05-25T05:51:32.453Z,976
2017-05-25T05:52:41.415Z,1008
2017-05-25T05:53:50.629Z,948
2017-05-25T05:54:59.597Z,956
2017-05-25T05:56:08.554Z,952
2017-05-25T05:57:17.514Z,996
2017-05-25T05:58:26.477Z,1052
2017-05-25T05:59:36.014Z,1128
2017-05-25T06:00:45.308Z,936
2017-05-25T06:01:54.264Z,1012
2017-05-25T06:03:03.222Z,1152
2017-05-25T06:04:12.183Z,1200
2017-05-25T06:05:21.399Z,1296
2017-05-25T06:06:30.357Z,2432
2017-05-25T06:07:39.643Z,2012
2017-05-25T06:08:48.606Z,1856
2017-05-25T06:09:57.574Z,1324
2017-05-25T06:11:06.792Z,1000
2017-05-25T06:12:15.753Z,1224
2017-05-25T06:13:24.722Z,1744
2017-05-25T06:14:33.686Z,1132
2017-05-25T06:15:42.638Z,908
2017-05-25T06:16:51.850Z,828
2017-05-25T06:18:00.813Z,1208
2017-05-25T06:19:09.770Z,1072
2017-05-25T06:20:18.724Z,1040
2017-05-25T06:21:27.681Z,1032
2017-05-25T06:22:36.894Z,980
2017-05-25T06:23:45.853Z,932
2017-05-25T06:24:54.817Z,920
2017-05-25T06:26:03.783Z,876
2017-05-25T06:27:12.742Z,720
2017-05-25T06:28:21.947Z,836
2017-05-25T06:29:30.911Z,972
2017-05-25T06:30:39.871Z,1264
2017-05-25T06:31:48.832Z,1204
2017-05-25T06:32:57.797Z,1068
2017-05-25T06:34:07.331Z,1080
2017-05-25T06:35:16.287Z,1060
2017-05-25T06:36:25.247Z,1052
2017-05-25T06:37:34.207Z,976
2017-05-25T06:38:43.176Z,956
2017-05-25T06:39:52.436Z,948
2017-05-25T06:41:01.393Z,1028
2017-05-25T06:42:10.441Z,940
2017-05-25T06:43:19.401Z,940
2017-05-25T06:44:28.361Z,928
2017-05-25T06:45:37.658Z,936
2017-05-25T06:46:46.618Z,940
2017-05-25T06:47:55.578Z,952
2017-05-25T06:49:04.538Z,992
2017-05-25T06:50:13.496Z,984
2017-05-25T06:51:22.848Z,936
2017-05-25T06:52:31.807Z,924
2017-05-25T06:53:40.771Z,928
2017-05-25T06:54:49.825Z,948
2017-05-25T06:55:58.788Z,944
2017-05-25T06:57:07.995Z,956
2017-05-25T06:58:16.955Z,960
2017-05-25T06:59:25.914Z,992
2017-05-25T07:00:34.876Z,992
2017-05-25T07:01:43.831Z,1008
2017-05-25T07:02:53.054Z,996
2017-05-25T07:04:02.336Z,968
2017-05-25T07:05:11.293Z,980
2017-05-25T07:06:20.255Z,1036
2017-05-25T07:07:29.218Z,1044
2017-05-25T07:08:38.482Z,1040
2017-05-25T07:09:47.445Z,1048
2017-05-25T07:10:56.401Z,1068
2017-05-25T07:12:05.358Z,1120
2017-05-25T07:13:14.314Z,1072
2017-05-25T07:14:23.580Z,1100
2017-05-25T07:15:32.538Z,1132
2017-05-25T07:16:41.493Z,1092
2017-05-25T07:17:50.454Z,1204
2017-05-25T07:18:59.412Z,1092
2017-05-25T07:20:08.620Z,1684
2017-05-25T07:21:17.577Z,968
2017-05-25T07:22:26.534Z,1164
2017-05-25T07:23:35.583Z,1208
2017-05-25T07:24:44.541Z,1156
2017-05-25T07:25:54.073Z,1144
2017-05-25T07:27:03.038Z,1244
2017-05-25T07:28:12.324Z,1244
2017-05-25T07:29:21.288Z,1304
2017-05-25T07:30:30.257Z,1644
2017-05-25T07:31:39.525Z,1968
2017-05-25T07:32:48.487Z,972
2017-05-25T07:33:57.776Z,1584
2017-05-25T07:35:06.829Z,1740
2017-05-25T07:36:15.791Z,1660
2017-05-25T07:37:25.052Z,2492
2017-05-25T07:38:34.332Z,1800
2017-05-25T07:39:43.299Z,1140
2017-05-25T07:40:52.261Z,1212
2017-05-25T07:42:01.227Z,1444
2017-05-25T07:43:10.440Z,1396
2017-05-25T07:44:19.399Z,1636
2017-05-25T07:45:28.355Z,1352
2017-05-25T07:46:37.317Z,1252
2017-05-25T07:47:46.283Z,1328
2017-05-25T07:48:55.547Z,1388
2017-05-25T07:50:04.508Z,1980
2017-05-25T07:51:13.470Z,1908
2017-05-25T07:52:22.525Z,1492
2017-05-25T07:53:31.484Z,2044
2017-05-25T07:54:40.746Z,2140
2017-05-25T07:55:49.707Z,1712
2017-05-25T07:56:58.672Z,1488
2017-05-25T07:58:07.627Z,1636
2017-05-25T07:59:16.589Z,1544
2017-05-25T08:00:25.801Z,2164
2017-05-25T08:01:34.756Z,1696
2017-05-25T08:02:43.721Z,1240
2017-05-25T08:03:52.735Z,1340
2017-05-25T08:05:01.697Z,1376
2017-05-25T08:06:10.910Z,1428
2017-05-25T08:07:19.958Z,1504
2017-05-25T08:08:29.004Z,1696
2017-05-25T08:09:37.972Z,1664
2017-05-25T08:10:46.933Z,2140
2017-05-25T08:11:56.146Z,3480
2017-05-25T08:13:05.112Z,2632
2017-05-25T08:14:14.071Z,1580
2017-05-25T08:15:23.038Z,1740
2017-05-25T08:16:31.997Z,3380
2017-05-25T08:17:41.224Z,3108
2017-05-25T08:18:50.190Z,2316
2017-05-25T08:19:59.150Z,1724
2017-05-25T08:21:08.126Z,1684
2017-05-25T08:22:17.412Z,1728
2017-05-25T08:23:26.622Z,1992
2017-05-25T08:24:35.589Z,2056
2017-05-25T08:25:44.553Z,2968
2017-05-25T08:26:53.514Z,1320
2017-05-25T08:28:02.475Z,2044
2017-05-25T08:29:11.693Z,2296
2017-05-25T08:30:20.652Z,2440
2017-05-25T08:31:29.614Z,4524
2017-05-25T08:32:38.576Z,1672
2017-05-25T08:33:47.542Z,2580
2017-05-25T08:34:56.818Z,2456
2017-05-25T08:36:05.790Z,2840
2017-05-25T08:37:14.846Z,3476
2017-05-25T08:38:23.808Z,4688
2017-05-25T08:39:32.772Z,2116
2017-05-25T08:40:41.986Z,3096
2017-05-25T08:41:50.952Z,2200
2017-05-25T08:43:00.248Z,2296
2017-05-25T08:44:09.220Z,2736
2017-05-25T08:45:18.185Z,1480
2017-05-25T08:46:27.533Z,1436
2017-05-25T08:47:36.491Z,2248
2017-05-25T08:48:45.549Z,2112
2017-05-25T08:49:54.517Z,3028
2017-05-25T08:51:03.475Z,3148
2017-05-25T08:52:12.742Z,5080
2017-05-25T08:53:21.786Z,3416
2017-05-25T08:54:30.750Z,2892
2017-05-25T08:55:39.708Z,1828
2017-05-25T08:56:48.756Z,2356
2017-05-25T08:57:58.019Z,2756
2017-05-25T08:59:06.981Z,2904
2017-05-25T09:00:15.940Z,2720
2017-05-25T09:01:24.905Z,2804
2017-05-25T09:02:33.865Z,3084
2017-05-25T09:03:43.136Z,5596
2017-05-25T09:04:52.114Z,4652
2017-05-25T09:06:01.117Z,5048
2017-05-25T09:07:10.075Z,3784
2017-05-25T09:08:19.039Z,2932
2017-05-25T09:09:28.319Z,3028
2017-05-25T09:10:37.281Z,2968
2017-05-25T09:11:46.250Z,3528
2017-05-25T09:12:55.542Z,3100
2017-05-25T09:14:04.599Z,2800
2017-05-25T09:15:13.808Z,2272
2017-05-25T09:16:22.769Z,2528
2017-05-25T09:17:31.732Z,3488
2017-05-25T09:18:40.695Z,3516
2017-05-25T09:19:49.661Z,4260
2017-05-25T09:20:58.963Z,4008
2017-05-25T09:22:07.926Z,4552
2017-05-25T09:23:16.886Z,3828
2017-05-25T09:24:25.853Z,3556
2017-05-25T09:25:34.903Z,4164
2017-05-25T09:26:44.113Z,4272
2017-05-25T09:27:53.072Z,2940
2017-05-25T09:29:02.034Z,2700
2017-05-25T09:30:10.995Z,3216
2017-05-25T09:31:19.951Z,2492
2017-05-25T09:32:29.163Z,1940
2017-05-25T09:33:38.128Z,1996
2017-05-25T09:34:47.414Z,2096
2017-05-25T09:35:56.466Z,2644
2017-05-25T09:37:05.753Z,2968
2017-05-25T09:38:15.015Z,3412
2017-05-25T09:39:23.976Z,2680
2017-05-25T09:40:32.939Z,2536
2017-05-25T09:41:41.901Z,2828
2017-05-25T09:42:50.860Z,2376
2017-05-25T09:44:00.129Z,2460
2017-05-25T09:45:09.085Z,2228
2017-05-25T09:46:18.051Z,1968
2017-05-25T09:47:27.097Z,1992
2017-05-25T09:48:36.060Z,1960
2017-05-25T09:49:45.320Z,2436
2017-05-25T09:50:54.278Z,2924
2017-05-25T09:52:03.242Z,2748
2017-05-25T09:53:12.207Z,2932
2017-05-25T09:54:21.170Z,2428
2017-05-25T09:55:30.383Z,2248
2017-05-25T09:56:39.345Z,2152
2017-05-25T09:57:48.313Z,1632
2017-05-25T09:58:57.335Z,1404
2017-05-25T10:00:06.348Z,1444
2017-05-25T10:01:15.608Z,1440
2017-05-25T10:02:24.654Z,1772
2017-05-25T10:03:33.621Z,1772
2017-05-25T10:04:42.581Z,1936
2017-05-25T10:05:51.537Z,2276
2017-05-25T10:07:00.760Z,1844
2017-05-25T10:08:09.720Z,1728
2017-05-25T10:09:18.685Z,1760
2017-05-25T10:10:27.647Z,2556
2017-05-25T10:11:36.605Z,2776
2017-05-25T10:12:45.869Z,2744
2017-05-25T10:13:54.830Z,3680
2017-05-25T10:15:03.794Z,4936
2017-05-25T10:16:13.095Z,4780
2017-05-25T10:17:22.063Z,2992
2017-05-25T10:18:31.363Z,3324
2017-05-25T10:19:40.323Z,2900
2017-05-25T10:20:49.285Z,3556
2017-05-25T10:21:58.255Z,2788
2017-05-25T10:23:07.235Z,3404
2017-05-25T10:24:16.537Z,3728
2017-05-25T10:25:25.498Z,4688
2017-05-25T10:26:34.545Z,4140
2017-05-25T10:27:43.506Z,3296
2017-05-25T10:28:52.478Z,3340
2017-05-25T10:30:01.693Z,3464
2017-05-25T10:31:10.659Z,2444
2017-05-25T10:32:19.622Z,2332
2017-05-25T10:33:28.588Z,3292
2017-05-25T10:34:37.552Z,2808
2017-05-25T10:35:46.813Z,3028
2017-05-25T10:36:55.769Z,3124
2017-05-25T10:38:04.732Z,3628
2017-05-25T10:39:13.699Z,3512
2017-05-25T10:40:22.662Z,3172
2017-05-25T10:41:31.871Z,3528
2017-05-25T10:42:40.835Z,4720
2017-05-25T10:43:49.803Z,4248
2017-05-25T10:44:58.770Z,3952
2017-05-25T10:46:07.728Z,4108
2017-05-25T10:47:16.937Z,3580
2017-05-25T10:48:25.898Z,2816
2017-05-25T10:49:34.860Z,2872
2017-05-25T10:50:43.823Z,2380
2017-05-25T10:51:52.784Z,2492
2017-05-25T10:53:01.993Z,2684
2017-05-25T10:54:11.019Z,3284
2017-05-25T10:55:19.982Z,3056
2017-05-25T10:56:28.947Z,2528
2017-05-25T10:57:37.906Z,2364
2017-05-25T10:58:47.209Z,2012
2017-05-25T10:59:56.173Z,2428
2017-05-25T11:01:05.147Z,2780
2017-05-25T11:02:14.108Z,2468
2017-05-25T11:03:23.155Z,2096
2017-05-25T11:04:32.374Z,2136
2017-05-25T11:05:41.336Z,1924
2017-05-25T11:06:50.300Z,1492
2017-05-25T11:07:59.263Z,1508
2017-05-25T11:09:08.223Z,1760
2017-05-25T11:10:17.488Z,1844
2017-05-25T11:11:26.446Z,1952
2017-05-25T11:12:35.402Z,1592
2017-05-25T11:13:44.377Z,1120
2017-05-25T11:14:53.340Z,952
2017-05-25T11:16:02.560Z,1080
2017-05-25T11:17:11.522Z,1116
2017-05-25T11:18:20.482Z,1076
2017-05-25T11:19:29.453Z,1028
2017-05-25T11:20:38.410Z,1116
2017-05-25T11:21:47.668Z,1352
2017-05-25T11:22:56.637Z,1572
2017-05-25T11:24:05.594Z,1828
2017-05-25T11:25:14.562Z,2012
2017-05-25T11:26:23.533Z,2056
2017-05-25T11:27:32.796Z,2164
2017-05-25T11:28:41.821Z,2040
2017-05-25T11:29:50.783Z,1840
2017-05-25T11:30:59.737Z,1664
2017-05-25T11:32:08.696Z,1300
2017-05-25T11:33:17.908Z,1308
2017-05-25T11:34:26.874Z,1316
2017-05-25T11:35:35.833Z,1644
2017-05-25T11:36:44.795Z,1936
2017-05-25T11:37:53.755Z,2116
2017-05-25T11:39:02.963Z,2356
2017-05-25T11:40:11.924Z,2344
2017-05-25T11:41:20.884Z,2348
2017-05-25T11:42:29.848Z,2184
2017-05-25T11:43:38.810Z,2004
2017-05-25T11:44:48.102Z,2092
2017-05-25T11:45:57.061Z,2240
2017-05-25T11:47:06.030Z,2168
2017-05-25T11:48:14.993Z,1840
2017-05-25T11:49:23.959Z,1128
2017-05-25T11:50:33.170Z,1008
2017-05-25T11:51:42.142Z,960
2017-05-25T11:52:51.102Z,1000
2017-05-25T11:54:00.068Z,1016
2017-05-25T11:55:09.029Z,1040
2017-05-25T11:56:18.239Z,1260
2017-05-25T11:57:27.201Z,1384
2017-05-25T11:58:36.246Z,1468
2017-05-25T11:59:45.209Z,1572
2017-05-25T12:00:54.170Z,1720
2017-05-25T12:02:03.388Z,1888
2017-05-25T12:03:12.347Z,2144
2017-05-25T12:04:21.309Z,2516
2017-05-25T12:05:30.597Z,2744
2017-05-25T12:06:39.556Z,2276
2017-05-25T12:07:48.816Z,2248
2017-05-25T12:08:57.777Z,2424
2017-05-25T12:10:06.745Z,2524
2017-05-25T12:11:15.706Z,2416
2017-05-25T12:12:24.660Z,2548
2017-05-25T12:13:33.924Z,2704
2017-05-25T12:14:42.892Z,2756
2017-05-25T12:15:51.861Z,2624
2017-05-25T12:17:00.824Z,2296
2017-05-25T12:18:09.782Z,2132
2017-05-25T12:19:18.989Z,2052
2017-05-25T12:20:28.273Z,2000
2017-05-25T12:21:37.231Z,2008
2017-05-25T12:22:46.194Z,2312
2017-05-25T12:23:55.488Z,2244
2017-05-25T12:25:04.697Z,2224
2017-05-25T12:26:13.748Z,2404
2017-05-25T12:27:22.706Z,2648
2017-05-25T12:28:31.679Z,2728
2017-05-25T12:29:40.969Z,2684
2017-05-25T12:30:50.240Z,2476
2017-05-25T12:31:59.197Z,2192
2017-05-25T12:33:08.161Z,2096
2017-05-25T12:34:17.129Z,2368
2017-05-25T12:35:26.091Z,2332
2017-05-25T12:36:35.357Z,2320
2017-05-25T12:37:44.320Z,2480
2017-05-25T12:38:53.289Z,2568
2017-05-25T12:40:02.251Z,2276
2017-05-25T12:41:11.299Z,2480
2017-05-25T12:42:20.563Z,2400
2017-05-25T12:43:29.530Z,1680
2017-05-25T12:44:38.494Z,1256
2017-05-25T12:45:47.452Z,1592
2017-05-25T12:46:56.463Z,1528
2017-05-25T12:48:05.733Z,1228
2017-05-25T12:49:14.700Z,1396
2017-05-25T12:50:23.748Z,1708
2017-05-25T12:51:32.708Z,1528
2017-05-25T12:52:41.671Z,1276
2017-05-25T12:53:50.896Z,1240
2017-05-25T12:54:59.862Z,1240
2017-05-25T12:56:08.823Z,1304
2017-05-25T12:57:17.789Z,1088
2017-05-25T12:58:26.750Z,1136
2017-05-25T12:59:35.964Z,1292
2017-05-25T13:00:45.243Z,1380
2017-05-25T13:01:54.202Z,1368
2017-05-25T13:03:03.162Z,1236
2017-05-25T13:04:12.127Z,1160
2017-05-25T13:05:21.343Z,1108
2017-05-25T13:06:30.299Z,1012
2017-05-25T13:07:39.258Z,924
2017-05-25T13:08:48.271Z,972
2017-05-25T13:09:57.230Z,952
2017-05-25T13:11:06.444Z,956
2017-05-25T13:12:15.406Z,972
2017-05-25T13:13:24.368Z,1024
2017-05-25T13:14:33.410Z,1140
2017-05-25T13:15:42.390Z,1172
2017-05-25T13:16:51.605Z,1208
2017-05-25T13:18:00.571Z,1288
2017-05-25T13:19:09.546Z,1372
2017-05-25T13:20:18.509Z,1552
2017-05-25T13:21:27.476Z,1796
2017-05-25T13:22:36.682Z,2016
2017-05-25T13:23:45.648Z,2068
2017-05-25T13:24:54.609Z,2412
2017-05-25T13:26:03.573Z,2632
2017-05-25T13:27:12.532Z,2676
2017-05-25T13:28:21.750Z,2628
2017-05-25T13:29:30.714Z,2592
2017-05-25T13:30:39.672Z,2396
2017-05-25T13:31:48.640Z,2108
2017-05-25T13:32:57.606Z,1780
2017-05-25T13:34:06.819Z,1584
2017-05-25T13:35:15.780Z,1508
2017-05-25T13:36:24.738Z,1444
2017-05-25T13:37:33.700Z,1712
2017-05-25T13:38:42.729Z,2088
2017-05-25T13:39:52.331Z,2416
2017-05-25T13:41:01.293Z,3472
2017-05-25T13:42:10.261Z,2960
2017-05-25T13:43:19.224Z,2260
2017-05-25T13:44:28.188Z,2676
2017-05-25T13:45:37.405Z,3088
2017-05-25T13:46:46.431Z,2712
2017-05-25T13:47:55.399Z,2376
2017-05-25T13:49:04.363Z,3392
2017-05-25T13:50:13.333Z,3172
2017-05-25T13:51:22.542Z,3428
2017-05-25T13:52:31.506Z,2392
2017-05-25T13:53:40.795Z,2556
2017-05-25T13:54:49.850Z,1572
2017-05-25T13:55:58.816Z,1392
2017-05-25T13:57:08.110Z,1280
2017-05-25T13:58:17.070Z,1480
2017-05-25T13:59:26.030Z,1956
2017-05-25T14:00:34.999Z,2224
2017-05-25T14:01:43.967Z,2096
2017-05-25T14:02:53.237Z,1480
2017-05-25T14:04:02.206Z,1876
2017-05-25T14:05:11.163Z,1704
2017-05-25T14:06:20.135Z,1644
2017-05-25T14:07:29.095Z,1636
2017-05-25T14:08:38.313Z,1592
2017-05-25T14:09:47.276Z,1484
2017-05-25T14:10:56.246Z,1520
2017-05-25T14:12:05.210Z,1424
2017-05-25T14:13:14.172Z,1468
2017-05-25T14:14:23.385Z,1448
2017-05-25T14:15:32.350Z,1432
2017-05-25T14:16:41.315Z,1456
2017-05-25T14:17:50.281Z,1504
2017-05-25T14:18:59.901Z,1528
2017-05-25T14:20:09.124Z,1536
2017-05-25T14:21:18.088Z,1572
2017-05-25T14:22:27.052Z,1572
2017-05-25T14:23:36.010Z,1580
2017-05-25T14:24:45.300Z,1628
2017-05-25T14:25:54.511Z,1848
2017-05-25T14:27:03.478Z,2056
2017-05-25T14:28:12.772Z,2260
2017-05-25T14:29:21.735Z,2364
2017-05-25T14:30:30.697Z,1768
2017-05-25T14:31:39.910Z,1716
2017-05-25T14:32:48.886Z,1396
2017-05-25T14:33:57.843Z,1044
2017-05-25T14:35:06.807Z,1928
2017-05-25T14:36:15.776Z,1332
2017-05-25T14:37:25.038Z,1704
2017-05-25T14:38:33.998Z,1832
2017-05-25T14:39:42.961Z,1812
2017-05-25T14:40:52.010Z,2424
2017-05-25T14:42:00.970Z,2184
2017-05-25T14:43:10.181Z,1940
2017-05-25T14:44:19.146Z,1428
2017-05-25T14:45:28.439Z,1312
2017-05-25T14:46:37.400Z,1264
2017-05-25T14:47:46.364Z,864
2017-05-25T14:48:55.580Z,708
2017-05-25T14:50:04.543Z,772
2017-05-25T14:51:13.510Z,872
2017-05-25T14:52:22.475Z,1052
2017-05-25T14:53:31.439Z,1008
2017-05-25T14:54:40.654Z,1892
2017-05-25T14:55:49.619Z,1516
2017-05-25T14:56:58.586Z,1508
2017-05-25T14:58:07.545Z,1600
2017-05-25T14:59:16.512Z,1600
2017-05-25T15:00:25.727Z,1192
2017-05-25T15:01:34.688Z,1544
2017-05-25T15:02:43.657Z,1368
2017-05-25T15:03:52.620Z,1008
2017-05-25T15:05:01.583Z,1464
2017-05-25T15:06:10.853Z,1344
2017-05-25T15:07:19.817Z,1516
2017-05-25T15:08:28.783Z,1052
2017-05-25T15:09:37.750Z,1136
2017-05-25T15:10:46.718Z,1184
2017-05-25T15:11:55.937Z,1032
2017-05-25T15:13:04.904Z,852
2017-05-25T15:14:13.868Z,748
2017-05-25T15:15:22.828Z,1296
2017-05-25T15:16:31.801Z,1448
2017-05-25T15:17:41.024Z,1360
2017-05-25T15:18:49.993Z,664
2017-05-25T15:19:58.961Z,588
2017-05-25T15:21:07.920Z,684
2017-05-25T15:22:16.883Z,800
2017-05-25T15:23:26.092Z,1204
2017-05-25T15:24:35.064Z,1216
2017-05-25T15:25:44.027Z,1152
2017-05-25T15:26:53.085Z,532
2017-05-25T15:28:02.391Z,516
2017-05-25T15:29:11.608Z,684
2017-05-25T15:30:20.897Z,744
2017-05-25T15:31:29.859Z,660
2017-05-25T15:32:38.823Z,696
2017-05-25T15:33:47.789Z,856
2017-05-25T15:34:57.059Z,920
2017-05-25T15:36:06.025Z,724
2017-05-25T15:37:14.987Z,632
2017-05-25T15:38:23.958Z,576
2017-05-25T15:39:32.918Z,988
2017-05-25T15:40:42.139Z,544
2017-05-25T15:41:51.168Z,532
2017-05-25T15:43:00.458Z,584
2017-05-25T15:44:09.433Z,476
2017-05-25T15:45:18.395Z,688